Terminal Aerodrome Forecast
Issued by NWS

Current Version | Previous Version | Text Only | Print | Product List | Glossary On
Versions: 1 2 3 4 5 6 7 8 9 10 11 12 13
000
FTUS45 KREV 231120
TAFTVL
TAF
KTVL 231120Z 2312/2412 19014G24KT P6SM FEW110 SCT180
     FM240200 20009KT P6SM SCT120 BKN180
     FM240700 20010KT P6SM SCT040 BKN080=

USA.gov is the U.S. government's official web portal to all federal, state and local government web resources and services.